sensor_id;sensor_type;location;lat;lon;timestamp;P1;durP1;ratioP1;P2;durP2;ratioP2
29938;SDS011;16799;50.844;5.304;2023-03-23T00:01:14;3.13;;;2.93;;
29938;SDS011;16799;50.844;5.304;2023-03-23T00:03:44;2.43;;;2.23;;
29938;SDS011;16799;50.844;5.304;2023-03-23T00:06:11;4.07;;;3.70;;
29938;SDS011;16799;50.844;5.304;2023-03-23T00:08:42;3.37;;;3.00;;
29938;SDS011;16799;50.844;5.304;2023-03-23T00:11:13;7.63;;;3.17;;
29938;SDS011;16799;50.844;5.304;2023-03-23T00:13:40;3.67;;;3.47;;
29938;SDS011;16799;50.844;5.304;2023-03-23T00:16:07;3.60;;;3.30;;
29938;SDS011;16799;50.844;5.304;2023-03-23T00:18:43;3.70;;;3.27;;
29938;SDS011;16799;50.844;5.304;2023-03-23T00:21:12;4.27;;;3.87;;
29938;SDS011;16799;50.844;5.304;2023-03-23T00:23:38;3.63;;;3.43;;
29938;SDS011;16799;50.844;5.304;2023-03-23T00:26:05;4.67;;;3.57;;
29938;SDS011;16799;50.844;5.304;2023-03-23T00:28:31;3.47;;;3.17;;
29938;SDS011;16799;50.844;5.304;2023-03-23T00:30:58;3.23;;;2.93;;
29938;SDS011;16799;50.844;5.304;2023-03-23T00:33:32;4.27;;;3.10;;
29938;SDS011;16799;50.844;5.304;2023-03-23T00:36:03;3.57;;;3.00;;
29938;SDS011;16799;50.844;5.304;2023-03-23T00:38:30;5.40;;;3.30;;
29938;SDS011;16799;50.844;5.304;2023-03-23T00:40:56;6.93;;;3.33;;
29938;SDS011;16799;50.844;5.304;2023-03-23T00:43:22;4.07;;;3.10;;
29938;SDS011;16799;50.844;5.304;2023-03-23T00:45:51;3.57;;;3.37;;
29938;SDS011;16799;50.844;5.304;2023-03-23T00:48:19;4.97;;;3.90;;
29938;SDS011;16799;50.844;5.304;2023-03-23T00:50:46;3.93;;;3.50;;
29938;SDS011;16799;50.844;5.304;2023-03-23T00:53:12;3.87;;;3.57;;
29938;SDS011;16799;50.844;5.304;2023-03-23T00:55:40;3.20;;;3.00;;
29938;SDS011;16799;50.844;5.304;2023-03-23T00:58:07;4.03;;;2.80;;
29938;SDS011;16799;50.844;5.304;2023-03-23T01:00:33;3.87;;;3.60;;
29938;SDS011;16799;50.844;5.304;2023-03-23T01:02:59;3.30;;;3.10;;
29938;SDS011;16799;50.844;5.304;2023-03-23T01:05:25;4.67;;;4.20;;
29938;SDS011;16799;50.844;5.304;2023-03-23T01:07:56;5.50;;;4.37;;
29938;SDS011;16799;50.844;5.304;2023-03-23T01:10:25;10.87;;;4.00;;
29938;SDS011;16799;50.844;5.304;2023-03-23T01:12:51;5.00;;;3.60;;
29938;SDS011;16799;50.844;5.304;2023-03-23T01:15:17;3.80;;;3.50;;
29938;SDS011;16799;50.844;5.304;2023-03-23T01:17:43;4.53;;;3.00;;
29938;SDS011;16799;50.844;5.304;2023-03-23T01:20:11;3.47;;;3.27;;
29938;SDS011;16799;50.844;5.304;2023-03-23T01:22:39;3.57;;;3.30;;
29938;SDS011;16799;50.844;5.304;2023-03-23T01:25:05;3.80;;;3.40;;
29938;SDS011;16799;50.844;5.304;2023-03-23T01:27:32;5.07;;;4.57;;
29938;SDS011;16799;50.844;5.304;2023-03-23T01:29:58;3.70;;;3.40;;
29938;SDS011;16799;50.844;5.304;2023-03-23T01:32:23;3.73;;;3.43;;
29938;SDS011;16799;50.844;5.304;2023-03-23T01:34:49;3.30;;;3.00;;
29938;SDS011;16799;50.844;5.304;2023-03-23T01:37:14;4.93;;;4.50;;
29938;SDS011;16799;50.844;5.304;2023-03-23T01:39:41;4.47;;;3.47;;
29938;SDS011;16799;50.844;5.304;2023-03-23T01:42:10;5.27;;;3.73;;
29938;SDS011;16799;50.844;5.304;2023-03-23T01:47:02;4.40;;;3.13;;
29938;SDS011;16799;50.844;5.304;2023-03-23T01:49:29;3.33;;;3.13;;
29938;SDS011;16799;50.844;5.304;2023-03-23T01:52:06;4.10;;;3.77;;
29938;SDS011;16799;50.844;5.304;2023-03-23T01:54:38;4.07;;;3.67;;
29938;SDS011;16799;50.844;5.304;2023-03-23T01:57:06;10.37;;;3.87;;
29938;SDS011;16799;50.844;5.304;2023-03-23T01:59:36;4.07;;;3.70;;
29938;SDS011;16799;50.844;5.304;2023-03-23T02:02:02;5.43;;;3.37;;
29938;SDS011;16799;50.844;5.304;2023-03-23T02:04:29;6.47;;;3.90;;
29938;SDS011;16799;50.844;5.304;2023-03-23T02:06:58;4.23;;;3.93;;
29938;SDS011;16799;50.844;5.304;2023-03-23T02:09:24;5.33;;;3.80;;
29938;SDS011;16799;50.844;5.304;2023-03-23T02:11:50;5.63;;;4.63;;
29938;SDS011;16799;50.844;5.304;2023-03-23T02:14:19;3.53;;;3.33;;
29938;SDS011;16799;50.844;5.304;2023-03-23T02:16:55;3.27;;;3.07;;
29938;SDS011;16799;50.844;5.304;2023-03-23T02:27:42;5.07;;;3.13;;
29938;SDS011;16799;50.844;5.304;2023-03-23T02:33:09;5.60;;;3.60;;
29938;SDS011;16799;50.844;5.304;2023-03-23T02:35:44;4.57;;;4.17;;
29938;SDS011;16799;50.844;5.304;2023-03-23T02:38:31;3.60;;;3.40;;
29938;SDS011;16799;50.844;5.304;2023-03-23T02:41:16;4.07;;;3.77;;
29938;SDS011;16799;50.844;5.304;2023-03-23T02:43:45;7.20;;;3.40;;
29938;SDS011;16799;50.844;5.304;2023-03-23T02:46:12;3.60;;;3.03;;
29938;SDS011;16799;50.844;5.304;2023-03-23T02:48:40;4.73;;;2.80;;
29938;SDS011;16799;50.844;5.304;2023-03-23T02:51:09;4.13;;;3.33;;
29938;SDS011;16799;50.844;5.304;2023-03-23T02:53:37;8.07;;;3.63;;
29938;SDS011;16799;50.844;5.304;2023-03-23T02:56:06;6.63;;;3.47;;
29938;SDS011;16799;50.844;5.304;2023-03-23T02:58:34;3.13;;;2.93;;
29938;SDS011;16799;50.844;5.304;2023-03-23T03:03:57;3.40;;;3.20;;
29938;SDS011;16799;50.844;5.304;2023-03-23T03:09:12;3.10;;;2.80;;
29938;SDS011;16799;50.844;5.304;2023-03-23T03:11:45;6.80;;;3.40;;
29938;SDS011;16799;50.844;5.304;2023-03-23T03:14:18;3.33;;;3.13;;
29938;SDS011;16799;50.844;5.304;2023-03-23T03:19:25;4.87;;;2.77;;
29938;SDS011;16799;50.844;5.304;2023-03-23T03:21:54;3.67;;;2.50;;
29938;SDS011;16799;50.844;5.304;2023-03-23T03:24:23;2.70;;;2.50;;
29938;SDS011;16799;50.844;5.304;2023-03-23T03:26:51;4.33;;;2.53;;
29938;SDS011;16799;50.844;5.304;2023-03-23T03:29:22;2.53;;;2.30;;
29938;SDS011;16799;50.844;5.304;2023-03-23T03:31:51;11.20;;;3.20;;
29938;SDS011;16799;50.844;5.304;2023-03-23T03:34:20;2.33;;;2.00;;
29938;SDS011;16799;50.844;5.304;2023-03-23T03:36:49;3.23;;;2.53;;
29938;SDS011;16799;50.844;5.304;2023-03-23T03:39:19;7.30;;;2.53;;
29938;SDS011;16799;50.844;5.304;2023-03-23T03:41:46;4.53;;;2.70;;
29938;SDS011;16799;50.844;5.304;2023-03-23T03:44:13;5.47;;;2.73;;
29938;SDS011;16799;50.844;5.304;2023-03-23T03:46:40;2.83;;;2.57;;
29938;SDS011;16799;50.844;5.304;2023-03-23T03:49:07;3.33;;;2.63;;
29938;SDS011;16799;50.844;5.304;2023-03-23T03:51:34;1.97;;;1.87;;
29938;SDS011;16799;50.844;5.304;2023-03-23T03:54:00;3.03;;;2.37;;
29938;SDS011;16799;50.844;5.304;2023-03-23T03:56:26;2.77;;;2.57;;
29938;SDS011;16799;50.844;5.304;2023-03-23T03:58:52;8.80;;;2.63;;
29938;SDS011;16799;50.844;5.304;2023-03-23T04:01:19;3.20;;;2.40;;
29938;SDS011;16799;50.844;5.304;2023-03-23T04:03:50;2.43;;;2.23;;
29938;SDS011;16799;50.844;5.304;2023-03-23T04:06:16;3.97;;;2.27;;
29938;SDS011;16799;50.844;5.304;2023-03-23T04:08:43;1.97;;;1.63;;
29938;SDS011;16799;50.844;5.304;2023-03-23T04:11:10;4.30;;;2.53;;
29938;SDS011;16799;50.844;5.304;2023-03-23T04:13:37;4.00;;;2.50;;
29938;SDS011;16799;50.844;5.304;2023-03-23T04:16:03;2.00;;;1.90;;
29938;SDS011;16799;50.844;5.304;2023-03-23T04:18:30;3.60;;;2.10;;
29938;SDS011;16799;50.844;5.304;2023-03-23T04:20:57;3.23;;;2.40;;
29938;SDS011;16799;50.844;5.304;2023-03-23T04:23:24;2.57;;;2.40;;
29938;SDS011;16799;50.844;5.304;2023-03-23T04:25:51;3.63;;;2.80;;
29938;SDS011;16799;50.844;5.304;2023-03-23T04:28:21;3.67;;;2.60;;
29938;SDS011;16799;50.844;5.304;2023-03-23T04:30:49;3.70;;;2.60;;
29938;SDS011;16799;50.844;5.304;2023-03-23T04:33:19;2.53;;;2.37;;
29938;SDS011;16799;50.844;5.304;2023-03-23T04:35:50;2.43;;;2.23;;
29938;SDS011;16799;50.844;5.304;2023-03-23T04:38:17;4.60;;;2.40;;
29938;SDS011;16799;50.844;5.304;2023-03-23T04:40:46;7.97;;;2.07;;
29938;SDS011;16799;50.844;5.304;2023-03-23T04:43:12;3.90;;;2.73;;
29938;SDS011;16799;50.844;5.304;2023-03-23T04:45:40;12.97;;;2.40;;
29938;SDS011;16799;50.844;5.304;2023-03-23T04:48:10;2.40;;;2.20;;
29938;SDS011;16799;50.844;5.304;2023-03-23T04:50:36;5.17;;;1.77;;
29938;SDS011;16799;50.844;5.304;2023-03-23T04:53:03;2.30;;;2.10;;
29938;SDS011;16799;50.844;5.304;2023-03-23T04:55:29;3.27;;;2.97;;
29938;SDS011;16799;50.844;5.304;2023-03-23T04:58:05;3.70;;;2.17;;
29938;SDS011;16799;50.844;5.304;2023-03-23T05:00:32;7.83;;;2.33;;
29938;SDS011;16799;50.844;5.304;2023-03-23T05:02:59;5.40;;;1.47;;
29938;SDS011;16799;50.844;5.304;2023-03-23T05:05:26;3.03;;;2.57;;
29938;SDS011;16799;50.844;5.304;2023-03-23T05:07:52;10.57;;;4.33;;
29938;SDS011;16799;50.844;5.304;2023-03-23T05:10:18;4.57;;;2.17;;
29938;SDS011;16799;50.844;5.304;2023-03-23T05:12:45;2.67;;;2.47;;
29938;SDS011;16799;50.844;5.304;2023-03-23T05:15:11;5.03;;;1.97;;
29938;SDS011;16799;50.844;5.304;2023-03-23T05:17:38;3.30;;;1.70;;
29938;SDS011;16799;50.844;5.304;2023-03-23T05:20:05;6.83;;;1.60;;
29938;SDS011;16799;50.844;5.304;2023-03-23T05:22:36;5.67;;;1.87;;
29938;SDS011;16799;50.844;5.304;2023-03-23T05:25:02;2.63;;;2.00;;
29938;SDS011;16799;50.844;5.304;2023-03-23T05:27:28;5.03;;;2.00;;
29938;SDS011;16799;50.844;5.304;2023-03-23T05:29:55;3.93;;;1.77;;
29938;SDS011;16799;50.844;5.304;2023-03-23T05:32:23;5.60;;;2.03;;
29938;SDS011;16799;50.844;5.304;2023-03-23T05:35:00;2.30;;;2.10;;
29938;SDS011;16799;50.844;5.304;2023-03-23T05:37:27;5.10;;;1.60;;
29938;SDS011;16799;50.844;5.304;2023-03-23T05:39:57;12.20;;;1.87;;
29938;SDS011;16799;50.844;5.304;2023-03-23T05:42:33;4.53;;;1.70;;
29938;SDS011;16799;50.844;5.304;2023-03-23T05:45:01;2.53;;;1.57;;
29938;SDS011;16799;50.844;5.304;2023-03-23T05:47:30;2.13;;;1.93;;
29938;SDS011;16799;50.844;5.304;2023-03-23T05:49:56;5.90;;;1.73;;
29938;SDS011;16799;50.844;5.304;2023-03-23T05:52:22;6.60;;;2.57;;
29938;SDS011;16799;50.844;5.304;2023-03-23T05:54:51;3.80;;;1.40;;
29938;SDS011;16799;50.844;5.304;2023-03-23T05:57:17;4.77;;;2.20;;
29938;SDS011;16799;50.844;5.304;2023-03-23T05:59:46;2.10;;;1.43;;
29938;SDS011;16799;50.844;5.304;2023-03-23T06:02:12;2.60;;;1.97;;
29938;SDS011;16799;50.844;5.304;2023-03-23T06:04:39;3.50;;;1.67;;
29938;SDS011;16799;50.844;5.304;2023-03-23T06:07:06;4.37;;;1.60;;
29938;SDS011;16799;50.844;5.304;2023-03-23T06:09:37;3.13;;;2.23;;
29938;SDS011;16799;50.844;5.304;2023-03-23T06:12:03;6.97;;;1.60;;
29938;SDS011;16799;50.844;5.304;2023-03-23T06:14:29;3.80;;;1.87;;
29938;SDS011;16799;50.844;5.304;2023-03-23T06:16:56;2.50;;;1.70;;
29938;SDS011;16799;50.844;5.304;2023-03-23T06:19:22;3.30;;;1.67;;
29938;SDS011;16799;50.844;5.304;2023-03-23T06:21:48;3.70;;;1.73;;
29938;SDS011;16799;50.844;5.304;2023-03-23T06:24:13;1.87;;;1.40;;
29938;SDS011;16799;50.844;5.304;2023-03-23T06:26:39;3.37;;;1.97;;
29938;SDS011;16799;50.844;5.304;2023-03-23T06:29:06;9.13;;;2.30;;
29938;SDS011;16799;50.844;5.304;2023-03-23T06:31:36;4.03;;;1.70;;
29938;SDS011;16799;50.844;5.304;2023-03-23T06:34:08;6.50;;;2.10;;
29938;SDS011;16799;50.844;5.304;2023-03-23T06:36:35;5.70;;;1.63;;
29938;SDS011;16799;50.844;5.304;2023-03-23T06:39:01;4.07;;;1.93;;
29938;SDS011;16799;50.844;5.304;2023-03-23T06:41:29;1.93;;;1.80;;
29938;SDS011;16799;50.844;5.304;2023-03-23T06:43:57;3.00;;;1.57;;
29938;SDS011;16799;50.844;5.304;2023-03-23T06:46:23;4.47;;;1.50;;
29938;SDS011;16799;50.844;5.304;2023-03-23T06:48:48;6.43;;;1.13;;
29938;SDS011;16799;50.844;5.304;2023-03-23T06:51:15;9.07;;;1.70;;
29938;SDS011;16799;50.844;5.304;2023-03-23T06:53:42;2.23;;;1.50;;
29938;SDS011;16799;50.844;5.304;2023-03-23T06:56:08;3.20;;;1.40;;
29938;SDS011;16799;50.844;5.304;2023-03-23T06:58:34;3.80;;;1.70;;
29938;SDS011;16799;50.844;5.304;2023-03-23T07:01:00;4.67;;;1.67;;
29938;SDS011;16799;50.844;5.304;2023-03-23T07:03:26;4.13;;;2.60;;
29938;SDS011;16799;50.844;5.304;2023-03-23T07:05:53;4.83;;;2.10;;
29938;SDS011;16799;50.844;5.304;2023-03-23T07:08:19;3.50;;;3.00;;
29938;SDS011;16799;50.844;5.304;2023-03-23T07:10:46;3.67;;;1.60;;
29938;SDS011;16799;50.844;5.304;2023-03-23T07:13:12;2.80;;;1.87;;
29938;SDS011;16799;50.844;5.304;2023-03-23T07:15:38;6.67;;;2.27;;
29938;SDS011;16799;50.844;5.304;2023-03-23T07:18:05;2.10;;;1.63;;
29938;SDS011;16799;50.844;5.304;2023-03-23T07:20:31;7.90;;;2.50;;
29938;SDS011;16799;50.844;5.304;2023-03-23T07:22:57;3.60;;;2.10;;
29938;SDS011;16799;50.844;5.304;2023-03-23T07:25:22;6.67;;;2.53;;
29938;SDS011;16799;50.844;5.304;2023-03-23T07:27:48;3.67;;;1.50;;
29938;SDS011;16799;50.844;5.304;2023-03-23T07:30:14;6.90;;;1.70;;
29938;SDS011;16799;50.844;5.304;2023-03-23T07:32:40;6.20;;;1.83;;
29938;SDS011;16799;50.844;5.304;2023-03-23T07:35:07;7.47;;;1.63;;
29938;SDS011;16799;50.844;5.304;2023-03-23T07:37:34;4.40;;;1.57;;
29938;SDS011;16799;50.844;5.304;2023-03-23T07:40:00;3.70;;;1.60;;
29938;SDS011;16799;50.844;5.304;2023-03-23T07:42:39;5.07;;;1.73;;
29938;SDS011;16799;50.844;5.304;2023-03-23T07:45:09;5.57;;;2.33;;
29938;SDS011;16799;50.844;5.304;2023-03-23T07:47:36;2.53;;;1.73;;
29938;SDS011;16799;50.844;5.304;2023-03-23T07:50:03;1.53;;;1.17;;
29938;SDS011;16799;50.844;5.304;2023-03-23T07:52:29;5.43;;;1.73;;
29938;SDS011;16799;50.844;5.304;2023-03-23T07:54:56;4.97;;;1.27;;
29938;SDS011;16799;50.844;5.304;2023-03-23T07:57:21;1.60;;;1.50;;
29938;SDS011;16799;50.844;5.304;2023-03-23T07:59:47;2.37;;;1.90;;
29938;SDS011;16799;50.844;5.304;2023-03-23T08:02:13;12.40;;;1.53;;
29938;SDS011;16799;50.844;5.304;2023-03-23T08:04:40;9.07;;;1.73;;
29938;SDS011;16799;50.844;5.304;2023-03-23T08:07:07;4.47;;;1.73;;
29938;SDS011;16799;50.844;5.304;2023-03-23T08:09:33;2.47;;;1.50;;
29938;SDS011;16799;50.844;5.304;2023-03-23T08:11:59;3.97;;;2.03;;
29938;SDS011;16799;50.844;5.304;2023-03-23T08:14:24;4.17;;;2.20;;
29938;SDS011;16799;50.844;5.304;2023-03-23T08:16:52;5.93;;;1.80;;
29938;SDS011;16799;50.844;5.304;2023-03-23T08:19:20;2.83;;;1.87;;
29938;SDS011;16799;50.844;5.304;2023-03-23T08:21:46;8.67;;;2.10;;
29938;SDS011;16799;50.844;5.304;2023-03-23T08:24:12;1.73;;;1.63;;
29938;SDS011;16799;50.844;5.304;2023-03-23T08:26:38;3.63;;;2.03;;
29938;SDS011;16799;50.844;5.304;2023-03-23T08:29:04;2.57;;;1.50;;
29938;SDS011;16799;50.844;5.304;2023-03-23T08:31:30;3.70;;;1.97;;
29938;SDS011;16799;50.844;5.304;2023-03-23T08:33:59;5.13;;;2.37;;
29938;SDS011;16799;50.844;5.304;2023-03-23T08:36:25;2.17;;;1.97;;
29938;SDS011;16799;50.844;5.304;2023-03-23T08:38:52;2.00;;;1.80;;
29938;SDS011;16799;50.844;5.304;2023-03-23T08:41:18;6.17;;;2.40;;
29938;SDS011;16799;50.844;5.304;2023-03-23T08:43:44;6.00;;;2.10;;
29938;SDS011;16799;50.844;5.304;2023-03-23T08:46:11;9.70;;;2.23;;
29938;SDS011;16799;50.844;5.304;2023-03-23T08:48:37;4.30;;;2.30;;
29938;SDS011;16799;50.844;5.304;2023-03-23T08:51:04;9.00;;;2.23;;
29938;SDS011;16799;50.844;5.304;2023-03-23T08:53:32;8.33;;;2.77;;
29938;SDS011;16799;50.844;5.304;2023-03-23T08:56:08;2.00;;;1.57;;
29938;SDS011;16799;50.844;5.304;2023-03-23T08:58:35;2.03;;;1.40;;
29938;SDS011;16799;50.844;5.304;2023-03-23T09:01:02;2.63;;;2.43;;
29938;SDS011;16799;50.844;5.304;2023-03-23T09:03:30;5.00;;;2.60;;
29938;SDS011;16799;50.844;5.304;2023-03-23T09:05:59;5.47;;;2.20;;
29938;SDS011;16799;50.844;5.304;2023-03-23T09:08:30;3.47;;;1.83;;
29938;SDS011;16799;50.844;5.304;2023-03-23T09:11:00;3.90;;;1.57;;
29938;SDS011;16799;50.844;5.304;2023-03-23T09:13:27;6.70;;;2.10;;
29938;SDS011;16799;50.844;5.304;2023-03-23T09:15:53;3.13;;;1.57;;
29938;SDS011;16799;50.844;5.304;2023-03-23T09:18:19;7.13;;;1.90;;
29938;SDS011;16799;50.844;5.304;2023-03-23T09:20:45;5.73;;;2.07;;
29938;SDS011;16799;50.844;5.304;2023-03-23T09:23:11;5.03;;;1.63;;
29938;SDS011;16799;50.844;5.304;2023-03-23T09:25:38;5.43;;;2.07;;
29938;SDS011;16799;50.844;5.304;2023-03-23T09:28:04;2.90;;;1.40;;
29938;SDS011;16799;50.844;5.304;2023-03-23T09:30:32;3.57;;;1.97;;
29938;SDS011;16799;50.844;5.304;2023-03-23T09:33:00;5.17;;;2.80;;
29938;SDS011;16799;50.844;5.304;2023-03-23T09:35:27;2.80;;;1.23;;
29938;SDS011;16799;50.844;5.304;2023-03-23T09:37:53;3.40;;;1.87;;
29938;SDS011;16799;50.844;5.304;2023-03-23T09:40:20;5.90;;;3.00;;
29938;SDS011;16799;50.844;5.304;2023-03-23T09:43:07;5.03;;;2.13;;
29938;SDS011;16799;50.844;5.304;2023-03-23T09:50:52;4.40;;;1.80;;
29938;SDS011;16799;50.844;5.304;2023-03-23T09:53:26;2.33;;;1.60;;
29938;SDS011;16799;50.844;5.304;2023-03-23T09:56:00;4.33;;;1.43;;
29938;SDS011;16799;50.844;5.304;2023-03-23T09:58:31;2.90;;;2.23;;
29938;SDS011;16799;50.844;5.304;2023-03-23T10:01:06;4.87;;;1.90;;
29938;SDS011;16799;50.844;5.304;2023-03-23T10:03:39;4.73;;;1.37;;
29938;SDS011;16799;50.844;5.304;2023-03-23T10:06:10;6.30;;;2.17;;
29938;SDS011;16799;50.844;5.304;2023-03-23T10:08:57;5.97;;;2.20;;
29938;SDS011;16799;50.844;5.304;2023-03-23T10:14:27;4.93;;;1.20;;
29938;SDS011;16799;50.844;5.304;2023-03-23T10:19:34;4.67;;;1.40;;
29938;SDS011;16799;50.844;5.304;2023-03-23T10:22:31;6.07;;;1.73;;
29938;SDS011;16799;50.844;5.304;2023-03-23T10:30:30;2.07;;;1.10;;
29938;SDS011;16799;50.844;5.304;2023-03-23T10:35:39;4.60;;;1.10;;
29938;SDS011;16799;50.844;5.304;2023-03-23T10:38:19;1.20;;;1.10;;
29938;SDS011;16799;50.844;5.304;2023-03-23T10:40:53;5.50;;;1.50;;
29938;SDS011;16799;50.844;5.304;2023-03-23T10:43:25;1.40;;;1.30;;
29938;SDS011;16799;50.844;5.304;2023-03-23T10:45:56;4.90;;;2.50;;
29938;SDS011;16799;50.844;5.304;2023-03-23T10:50:57;1.30;;;1.20;;
29938;SDS011;16799;50.844;5.304;2023-03-23T10:53:35;4.77;;;1.67;;
29938;SDS011;16799;50.844;5.304;2023-03-23T10:56:03;1.93;;;1.67;;
29938;SDS011;16799;50.844;5.304;2023-03-23T10:58:31;3.40;;;1.53;;
29938;SDS011;16799;50.844;5.304;2023-03-23T11:01:00;1.97;;;1.77;;
29938;SDS011;16799;50.844;5.304;2023-03-23T11:06:11;3.93;;;2.50;;
29938;SDS011;16799;50.844;5.304;2023-03-23T11:11:18;9.10;;;3.10;;
29938;SDS011;16799;50.844;5.304;2023-03-23T11:13:52;5.13;;;3.13;;
29938;SDS011;16799;50.844;5.304;2023-03-23T11:16:23;3.57;;;2.40;;
29938;SDS011;16799;50.844;5.304;2023-03-23T11:18:58;4.10;;;3.63;;
29938;SDS011;16799;50.844;5.304;2023-03-23T11:21:36;2.97;;;2.77;;
29938;SDS011;16799;50.844;5.304;2023-03-23T11:24:03;2.97;;;2.77;;
29938;SDS011;16799;50.844;5.304;2023-03-23T11:26:33;2.73;;;2.53;;
29938;SDS011;16799;50.844;5.304;2023-03-23T11:29:11;3.23;;;2.20;;
29938;SDS011;16799;50.844;5.304;2023-03-23T11:31:44;3.93;;;3.10;;
29938;SDS011;16799;50.844;5.304;2023-03-23T11:34:22;3.53;;;3.23;;
29938;SDS011;16799;50.844;5.304;2023-03-23T11:36:52;4.90;;;2.43;;
29938;SDS011;16799;50.844;5.304;2023-03-23T11:39:25;2.70;;;2.50;;
29938;SDS011;16799;50.844;5.304;2023-03-23T11:41:53;3.37;;;3.07;;
29938;SDS011;16799;50.844;5.304;2023-03-23T11:44:21;6.93;;;3.47;;
29938;SDS011;16799;50.844;5.304;2023-03-23T11:54:54;4.40;;;4.00;;
29938;SDS011;16799;50.844;5.304;2023-03-23T11:57:27;3.43;;;3.23;;
29938;SDS011;16799;50.844;5.304;2023-03-23T11:59:55;3.87;;;3.67;;
29938;SDS011;16799;50.844;5.304;2023-03-23T12:11:01;3.10;;;2.90;;
29938;SDS011;16799;50.844;5.304;2023-03-23T12:21:55;5.50;;;2.57;;
29938;SDS011;16799;50.844;5.304;2023-03-23T12:27:08;4.40;;;3.10;;
29938;SDS011;16799;50.844;5.304;2023-03-23T12:38:10;1.93;;;1.10;;
29938;SDS011;16799;50.844;5.304;2023-03-23T12:45:57;3.30;;;1.60;;
29938;SDS011;16799;50.844;5.304;2023-03-23T12:48:35;2.93;;;2.10;;
29938;SDS011;16799;50.844;5.304;2023-03-23T12:54:09;2.00;;;1.80;;
29938;SDS011;16799;50.844;5.304;2023-03-23T12:59:20;1.57;;;1.47;;
29938;SDS011;16799;50.844;5.304;2023-03-23T13:01:49;3.60;;;2.23;;
29938;SDS011;16799;50.844;5.304;2023-03-23T13:04:23;3.00;;;2.03;;
29938;SDS011;16799;50.844;5.304;2023-03-23T13:06:55;5.53;;;1.80;;
29938;SDS011;16799;50.844;5.304;2023-03-23T13:12:15;5.07;;;2.87;;
29938;SDS011;16799;50.844;5.304;2023-03-23T13:25:19;6.43;;;3.47;;
29938;SDS011;16799;50.844;5.304;2023-03-23T13:28:18;4.67;;;4.27;;
29938;SDS011;16799;50.844;5.304;2023-03-23T13:30:57;10.03;;;4.07;;
29938;SDS011;16799;50.844;5.304;2023-03-23T13:33:25;6.13;;;3.90;;
29938;SDS011;16799;50.844;5.304;2023-03-23T13:35:54;5.27;;;4.00;;
29938;SDS011;16799;50.844;5.304;2023-03-23T13:38:21;3.77;;;2.87;;
29938;SDS011;16799;50.844;5.304;2023-03-23T13:40:51;5.30;;;4.10;;
29938;SDS011;16799;50.844;5.304;2023-03-23T13:43:30;6.77;;;3.90;;
29938;SDS011;16799;50.844;5.304;2023-03-23T13:46:07;6.10;;;3.97;;
29938;SDS011;16799;50.844;5.304;2023-03-23T13:48:42;11.37;;;5.90;;
29938;SDS011;16799;50.844;5.304;2023-03-23T13:51:31;3.90;;;3.50;;
29938;SDS011;16799;50.844;5.304;2023-03-23T13:54:13;6.00;;;4.13;;
29938;SDS011;16799;50.844;5.304;2023-03-23T13:56:40;10.10;;;5.00;;
29938;SDS011;16799;50.844;5.304;2023-03-23T14:01:53;3.70;;;3.33;;
29938;SDS011;16799;50.844;5.304;2023-03-23T14:04:20;3.53;;;3.23;;
29938;SDS011;16799;50.844;5.304;2023-03-23T14:06:48;4.53;;;2.57;;
29938;SDS011;16799;50.844;5.304;2023-03-23T14:09:16;8.03;;;3.00;;
29938;SDS011;16799;50.844;5.304;2023-03-23T14:12:03;4.10;;;2.83;;
29938;SDS011;16799;50.844;5.304;2023-03-23T14:14:40;8.50;;;3.07;;
29938;SDS011;16799;50.844;5.304;2023-03-23T14:17:13;3.40;;;2.17;;
29938;SDS011;16799;50.844;5.304;2023-03-23T14:19:50;4.60;;;3.30;;
29938;SDS011;16799;50.844;5.304;2023-03-23T14:22:19;3.40;;;2.70;;
29938;SDS011;16799;50.844;5.304;2023-03-23T14:24:48;4.97;;;2.83;;
29938;SDS011;16799;50.844;5.304;2023-03-23T14:27:14;7.50;;;4.00;;
29938;SDS011;16799;50.844;5.304;2023-03-23T14:30:00;9.20;;;3.87;;
29938;SDS011;16799;50.844;5.304;2023-03-23T14:32:28;8.20;;;2.50;;
29938;SDS011;16799;50.844;5.304;2023-03-23T14:34:56;2.83;;;1.60;;
29938;SDS011;16799;50.844;5.304;2023-03-23T14:37:22;6.83;;;3.13;;
29938;SDS011;16799;50.844;5.304;2023-03-23T14:39:49;4.27;;;2.80;;
29938;SDS011;16799;50.844;5.304;2023-03-23T14:42:19;19.40;;;3.70;;
29938;SDS011;16799;50.844;5.304;2023-03-23T14:44:52;5.20;;;2.17;;
29938;SDS011;16799;50.844;5.304;2023-03-23T14:47:22;11.67;;;3.10;;
29938;SDS011;16799;50.844;5.304;2023-03-23T14:49:54;7.30;;;3.20;;
29938;SDS011;16799;50.844;5.304;2023-03-23T14:52:23;2.57;;;2.37;;
29938;SDS011;16799;50.844;5.304;2023-03-23T14:54:53;4.60;;;2.63;;
29938;SDS011;16799;50.844;5.304;2023-03-23T14:57:26;5.37;;;2.70;;
29938;SDS011;16799;50.844;5.304;2023-03-23T14:59:53;6.07;;;2.70;;
29938;SDS011;16799;50.844;5.304;2023-03-23T15:02:37;3.43;;;2.50;;
29938;SDS011;16799;50.844;5.304;2023-03-23T15:07:36;2.80;;;2.50;;
29938;SDS011;16799;50.844;5.304;2023-03-23T15:10:06;6.10;;;2.93;;
29938;SDS011;16799;50.844;5.304;2023-03-23T15:12:36;16.40;;;2.77;;
29938;SDS011;16799;50.844;5.304;2023-03-23T15:15:03;7.83;;;2.53;;
29938;SDS011;16799;50.844;5.304;2023-03-23T15:17:36;5.97;;;2.63;;
29938;SDS011;16799;50.844;5.304;2023-03-23T15:20:10;5.70;;;3.27;;
29938;SDS011;16799;50.844;5.304;2023-03-23T15:23:05;9.23;;;2.10;;
29938;SDS011;16799;50.844;5.304;2023-03-23T15:25:33;8.10;;;3.47;;
29938;SDS011;16799;50.844;5.304;2023-03-23T15:30:33;4.60;;;2.30;;
29938;SDS011;16799;50.844;5.304;2023-03-23T15:35:38;7.30;;;2.83;;
29938;SDS011;16799;50.844;5.304;2023-03-23T15:38:14;7.80;;;2.60;;
29938;SDS011;16799;50.844;5.304;2023-03-23T15:40:51;4.20;;;2.30;;
29938;SDS011;16799;50.844;5.304;2023-03-23T15:43:23;4.57;;;2.50;;
29938;SDS011;16799;50.844;5.304;2023-03-23T15:45:55;7.27;;;2.27;;
29938;SDS011;16799;50.844;5.304;2023-03-23T15:48:25;7.90;;;2.80;;
29938;SDS011;16799;50.844;5.304;2023-03-23T15:50:52;6.30;;;2.37;;
29938;SDS011;16799;50.844;5.304;2023-03-23T15:55:58;7.13;;;2.20;;
29938;SDS011;16799;50.844;5.304;2023-03-23T15:58:25;11.93;;;3.40;;
29938;SDS011;16799;50.844;5.304;2023-03-23T16:00:52;9.40;;;3.10;;
29938;SDS011;16799;50.844;5.304;2023-03-23T16:03:20;5.60;;;3.27;;
29938;SDS011;16799;50.844;5.304;2023-03-23T16:06:08;5.13;;;2.23;;
29938;SDS011;16799;50.844;5.304;2023-03-23T16:08:38;11.67;;;2.57;;
29938;SDS011;16799;50.844;5.304;2023-03-23T16:11:10;7.23;;;2.77;;
29938;SDS011;16799;50.844;5.304;2023-03-23T16:13:37;7.17;;;2.70;;
29938;SDS011;16799;50.844;5.304;2023-03-23T16:16:04;6.63;;;2.67;;
29938;SDS011;16799;50.844;5.304;2023-03-23T16:18:32;15.13;;;3.77;;
29938;SDS011;16799;50.844;5.304;2023-03-23T16:20:58;9.70;;;3.17;;
29938;SDS011;16799;50.844;5.304;2023-03-23T16:23:25;6.17;;;2.97;;
29938;SDS011;16799;50.844;5.304;2023-03-23T16:25:51;9.93;;;2.50;;
29938;SDS011;16799;50.844;5.304;2023-03-23T16:28:16;11.90;;;2.70;;
29938;SDS011;16799;50.844;5.304;2023-03-23T16:30:44;5.47;;;2.90;;
29938;SDS011;16799;50.844;5.304;2023-03-23T16:33:11;7.27;;;3.30;;
29938;SDS011;16799;50.844;5.304;2023-03-23T16:35:37;8.00;;;2.13;;
29938;SDS011;16799;50.844;5.304;2023-03-23T16:38:03;5.03;;;2.83;;
29938;SDS011;16799;50.844;5.304;2023-03-23T16:40:29;16.13;;;3.80;;
29938;SDS011;16799;50.844;5.304;2023-03-23T16:42:55;7.70;;;2.30;;
29938;SDS011;16799;50.844;5.304;2023-03-23T16:45:21;5.73;;;3.20;;
29938;SDS011;16799;50.844;5.304;2023-03-23T16:47:48;4.90;;;3.07;;
29938;SDS011;16799;50.844;5.304;2023-03-23T16:50:14;7.00;;;2.83;;
29938;SDS011;16799;50.844;5.304;2023-03-23T16:52:41;4.50;;;2.90;;
29938;SDS011;16799;50.844;5.304;2023-03-23T16:55:09;8.17;;;2.77;;
29938;SDS011;16799;50.844;5.304;2023-03-23T16:57:36;11.50;;;3.40;;
29938;SDS011;16799;50.844;5.304;2023-03-23T17:00:05;6.73;;;2.87;;
29938;SDS011;16799;50.844;5.304;2023-03-23T17:02:32;9.00;;;2.60;;